createdAt,value
2023-03-27T01:04:40.168Z,95.07
2023-03-27T01:11:17.812Z,92.94
2023-03-27T01:13:56.184Z,92.23
2023-03-27T01:16:25.235Z,92.41
2023-03-27T01:18:58.897Z,92.73
2023-03-27T01:21:39.869Z,92.14
2023-03-27T01:24:26.647Z,93.87
2023-03-27T01:26:59.842Z,95.71
2023-03-27T01:29:32.007Z,94.52
2023-03-27T01:32:22.262Z,93.74
2023-03-27T01:35:01.110Z,95.52
2023-03-27T01:37:38.969Z,95.53
2023-03-27T01:40:12.736Z,93.97
2023-03-27T01:42:45.860Z,93.54
2023-03-27T01:45:17.988Z,95.01
2023-03-27T01:47:47.929Z,95.79
2023-03-27T01:50:20.149Z,94.30
2023-03-27T01:52:51.669Z,96.03
2023-03-27T01:55:24.090Z,96.38
2023-03-27T01:58:00.441Z,95.65
2023-03-27T02:00:28.427Z,97.20
2023-03-27T02:03:19.132Z,97.21
2023-03-27T02:05:49.018Z,97.57
2023-03-27T02:08:18.361Z,98.68
2023-03-27T02:10:49.389Z,98.63
2023-03-27T02:13:19.701Z,97.99
2023-03-27T02:15:48.721Z,98.45
2023-03-27T02:18:19.067Z,98.03
2023-03-27T02:20:46.560Z,96.56
2023-03-27T02:23:13.896Z,97.38
2023-03-27T02:25:42.154Z,97.33
2023-03-27T02:28:15.483Z,97.52
2023-03-27T02:30:47.674Z,97.29
2023-03-27T02:33:38.169Z,97.73
2023-03-27T02:36:11.390Z,98.01
2023-03-27T02:38:41.756Z,98.67
2023-03-27T02:41:12.260Z,99.43
2023-03-27T02:43:44.353Z,98.45
2023-03-27T02:46:15.260Z,99.27
2023-03-27T02:48:45.114Z,99.83
2023-03-27T02:51:15.074Z,100.00
2023-03-27T02:53:46.768Z,99.46
2023-03-27T02:56:15.896Z,98.51
2023-03-27T02:58:47.338Z,98.04
2023-03-27T03:01:17.292Z,97.86
2023-03-27T03:03:48.931Z,98.64
2023-03-27T03:06:16.228Z,98.97
2023-03-27T03:08:46.665Z,97.85
2023-03-27T03:11:15.577Z,98.12
2023-03-27T03:13:42.922Z,96.99
2023-03-27T03:16:12.095Z,97.11
2023-03-27T03:18:39.426Z,97.34
2023-03-27T03:21:06.994Z,97.14
2023-03-27T03:23:34.369Z,95.53
2023-03-27T03:26:02.860Z,95.66
2023-03-27T03:28:30.481Z,96.36
2023-03-27T03:30:58.961Z,96.05
2023-03-27T03:33:28.007Z,96.05
2023-03-27T03:35:58.886Z,96.88
2023-03-27T03:38:26.577Z,96.86
2023-03-27T03:40:55.046Z,96.05
2023-03-27T03:43:22.958Z,94.62
2023-03-27T03:45:50.794Z,96.39
2023-03-27T03:48:18.462Z,95.19
2023-03-27T03:50:47.766Z,96.61
2023-03-27T03:53:15.246Z,96.79
2023-03-27T03:55:42.776Z,95.91
2023-03-27T03:58:10.284Z,98.31
2023-03-27T04:00:38.935Z,97.26
2023-03-27T04:03:07.276Z,96.95
2023-03-27T04:05:35.254Z,96.46
2023-03-27T04:08:07.065Z,96.51
2023-03-27T04:10:34.913Z,94.79
2023-03-27T04:13:02.200Z,94.68
2023-03-27T04:15:29.520Z,94.55
2023-03-27T04:17:57.857Z,95.07
2023-03-27T04:20:26.468Z,95.24
2023-03-27T04:22:54.468Z,93.83
2023-03-27T04:25:25.152Z,94.54
2023-03-27T04:27:52.833Z,94.22
2023-03-27T04:30:23.190Z,94.24
2023-03-27T04:32:50.928Z,93.69
2023-03-27T04:35:19.834Z,93.66
2023-03-27T04:37:48.436Z,94.06
2023-03-27T04:40:17.868Z,95.30
2023-03-27T04:42:46.670Z,96.24
2023-03-27T04:45:15.002Z,95.55
2023-03-27T04:47:42.704Z,96.58
2023-03-27T04:50:10.643Z,96.56
2023-03-27T04:52:38.211Z,96.77
2023-03-27T04:55:06.280Z,96.59
2023-03-27T04:57:33.863Z,95.48
2023-03-27T05:00:07.809Z,93.75
2023-03-27T05:02:35.084Z,93.08
2023-03-27T05:05:02.848Z,92.71
2023-03-27T05:07:30.480Z,93.49
2023-03-27T05:09:58.185Z,92.65
2023-03-27T05:12:25.465Z,90.13
2023-03-27T05:14:52.763Z,91.48
2023-03-27T05:17:21.493Z,90.52
2023-03-27T05:19:49.230Z,89.10
2023-03-27T05:22:16.859Z,89.33
2023-03-27T05:24:44.159Z,90.24
2023-03-27T05:27:11.722Z,90.12
2023-03-27T05:29:47.404Z,88.11
2023-03-27T05:32:15.334Z,89.00
2023-03-27T05:34:44.014Z,87.30
2023-03-27T05:37:11.288Z,88.04
2023-03-27T05:39:38.560Z,88.41
2023-03-27T05:42:05.934Z,89.67
2023-03-27T05:44:33.228Z,88.53
2023-03-27T05:47:01.105Z,88.61
2023-03-27T05:49:28.417Z,87.80
2023-03-27T05:51:58.086Z,86.37
2023-03-27T05:54:25.659Z,87.35
2023-03-27T05:56:53.014Z,87.21
2023-03-27T05:59:20.351Z,85.32
2023-03-27T06:01:48.961Z,85.07
2023-03-27T06:04:17.198Z,83.84
2023-03-27T06:06:44.613Z,85.84
2023-03-27T06:09:13.532Z,85.82
2023-03-27T06:11:40.970Z,87.40
2023-03-27T06:14:08.401Z,86.19
2023-03-27T06:16:35.681Z,83.79
2023-03-27T06:19:02.953Z,85.29
2023-03-27T06:21:30.202Z,84.09
2023-03-27T06:23:57.504Z,81.74
2023-03-27T06:26:27.810Z,81.09
2023-03-27T06:28:56.194Z,81.09
2023-03-27T06:31:23.703Z,81.57
2023-03-27T06:33:50.997Z,80.74
2023-03-27T06:36:18.370Z,82.08
2023-03-27T06:38:45.843Z,82.31
2023-03-27T06:41:13.647Z,82.59
2023-03-27T06:43:42.227Z,80.62
2023-03-27T06:46:09.946Z,80.64
2023-03-27T06:48:37.662Z,78.41
2023-03-27T06:51:05.209Z,78.07
2023-03-27T06:53:37.432Z,77.02
2023-03-27T06:56:05.819Z,77.06
2023-03-27T06:58:33.110Z,73.68
2023-03-27T07:01:01.758Z,76.65
2023-03-27T07:03:29.079Z,74.92
2023-03-27T07:05:56.886Z,76.16
2023-03-27T07:08:25.550Z,74.00
2023-03-27T07:11:09.792Z,69.66
2023-03-27T07:13:40.849Z,68.86
2023-03-27T07:16:10.566Z,68.28
2023-03-27T07:18:37.888Z,66.98
2023-03-27T07:21:05.937Z,69.50
2023-03-27T07:23:33.209Z,67.39
2023-03-27T07:26:01.134Z,64.43
2023-03-27T07:28:28.625Z,65.91
2023-03-27T07:30:56.227Z,64.26
2023-03-27T07:33:25.227Z,63.81
2023-03-27T07:35:52.667Z,60.64
2023-03-27T07:38:19.978Z,60.30
2023-03-27T07:40:47.328Z,61.08
2023-03-27T07:43:14.918Z,60.48
2023-03-27T07:45:42.793Z,61.34
2023-03-27T07:48:12.060Z,61.32
2023-03-27T07:50:40.658Z,60.61
2023-03-27T07:53:07.936Z,61.08
2023-03-27T07:55:37.588Z,61.01
2023-03-27T07:58:06.831Z,62.83
2023-03-27T08:00:35.929Z,62.62
2023-03-27T08:03:07.560Z,61.64
2023-03-27T08:05:35.620Z,61.28
2023-03-27T08:08:04.816Z,62.56
2023-03-27T08:10:32.083Z,63.75
2023-03-27T08:12:59.353Z,63.42
2023-03-27T08:15:26.680Z,63.29
2023-03-27T08:17:56.752Z,63.86
2023-03-27T08:20:24.583Z,63.37
2023-03-27T08:22:52.452Z,64.58
2023-03-27T08:25:22.526Z,62.88
2023-03-27T08:27:50.561Z,61.27
2023-03-27T08:30:18.950Z,61.27
2023-03-27T08:32:46.466Z,62.10
2023-03-27T08:35:14.341Z,60.38
2023-03-27T08:37:42.248Z,59.25
2023-03-27T08:40:17.686Z,58.49
2023-03-27T08:42:47.343Z,54.17
2023-03-27T08:45:19.301Z,52.23
2023-03-27T08:47:50.398Z,52.89
2023-03-27T08:50:32.445Z,55.23
2023-03-27T08:53:00.461Z,56.14
2023-03-27T08:55:34.562Z,55.93
2023-03-27T08:58:03.208Z,54.60
2023-03-27T09:00:35.315Z,53.73
2023-03-27T09:03:07.430Z,54.85
2023-03-27T09:05:42.450Z,57.18
2023-03-27T09:08:14.982Z,59.30
2023-03-27T09:10:46.346Z,60.61
2023-03-27T09:13:17.899Z,60.58
2023-03-27T09:15:49.638Z,61.22
2023-03-27T09:18:20.274Z,57.79
2023-03-27T09:20:51.366Z,57.20
2023-03-27T09:23:21.753Z,56.96
2023-03-27T09:25:51.419Z,54.82
2023-03-27T09:28:22.561Z,53.77
2023-03-27T09:30:50.607Z,55.31
2023-03-27T09:33:18.116Z,59.47
2023-03-27T09:35:45.618Z,60.29
2023-03-27T09:38:22.489Z,60.81
2023-03-27T09:40:53.271Z,61.27
2023-03-27T09:43:25.031Z,60.80
2023-03-27T09:45:53.862Z,59.91
2023-03-27T09:48:27.288Z,59.39
2023-03-27T09:50:54.719Z,58.67
2023-03-27T09:53:23.020Z,56.24
2023-03-27T09:55:52.821Z,55.75
2023-03-27T09:58:25.793Z,52.99
2023-03-27T10:01:06.932Z,52.57
2023-03-27T10:03:37.671Z,51.46
2023-03-27T10:06:08.744Z,51.93
2023-03-27T10:08:38.764Z,52.63
2023-03-27T10:11:07.842Z,54.06
2023-03-27T10:13:36.589Z,53.44
2023-03-27T10:16:05.985Z,55.44
2023-03-27T10:18:34.801Z,58.14
2023-03-27T10:21:06.093Z,61.29
2023-03-27T10:23:41.804Z,60.82
2023-03-27T10:26:09.659Z,60.33
2023-03-27T10:28:39.210Z,61.06
2023-03-27T10:31:08.373Z,59.81
2023-03-27T10:33:37.328Z,58.02
2023-03-27T10:36:05.899Z,56.58
2023-03-27T10:38:34.168Z,54.73
2023-03-27T10:41:04.235Z,52.57
2023-03-27T10:43:33.437Z,52.75
2023-03-27T10:46:04.966Z,53.56
2023-03-27T10:48:38.542Z,50.77
2023-03-27T10:51:07.623Z,50.13
2023-03-27T10:53:39.127Z,51.88
2023-03-27T10:56:10.745Z,47.43
2023-03-27T10:58:43.034Z,47.73
2023-03-27T11:01:17.973Z,47.66
2023-03-27T11:03:50.027Z,48.11
2023-03-27T11:06:18.439Z,48.38
2023-03-27T11:08:53.012Z,49.17
2023-03-27T11:11:22.491Z,49.21
2023-03-27T11:13:49.952Z,47.65
2023-03-27T11:16:21.878Z,49.36
2023-03-27T11:18:51.218Z,47.22
2023-03-27T11:21:20.732Z,48.61
2023-03-27T11:23:50.397Z,50.06
2023-03-27T11:26:18.933Z,51.26
2023-03-27T11:28:51.405Z,50.51
2023-03-27T11:31:28.427Z,50.75
2023-03-27T11:34:00.029Z,47.64
2023-03-27T11:36:30.572Z,48.08
2023-03-27T11:39:13.564Z,45.35
2023-03-27T11:41:41.008Z,45.72
2023-03-27T11:44:09.438Z,44.44
2023-03-27T11:46:49.239Z,45.12
2023-03-27T11:49:25.312Z,46.40
2023-03-27T11:52:00.449Z,44.21
2023-03-27T11:54:35.959Z,45.46
2023-03-27T11:57:07.057Z,45.54
2023-03-27T11:59:43.493Z,46.93
2023-03-27T12:02:23.382Z,49.99
2023-03-27T12:04:54.584Z,53.19
2023-03-27T12:07:36.030Z,55.01
2023-03-27T12:10:15.912Z,53.65
2023-03-27T12:13:02.272Z,53.73
2023-03-27T12:15:51.782Z,50.32
2023-03-27T12:18:35.800Z,48.78
2023-03-27T12:21:13.556Z,47.10
2023-03-27T12:23:49.883Z,47.23
2023-03-27T12:26:25.924Z,46.66
2023-03-27T12:28:59.825Z,44.94
2023-03-27T12:31:32.200Z,43.70
2023-03-27T12:34:03.093Z,45.97
2023-03-27T12:36:33.912Z,43.62
2023-03-27T12:39:01.276Z,43.91
2023-03-27T12:41:31.062Z,45.41
2023-03-27T12:43:59.330Z,44.61
2023-03-27T12:46:34.508Z,44.39
2023-03-27T12:49:06.455Z,46.67
2023-03-27T12:51:39.075Z,44.82
2023-03-27T12:54:23.686Z,43.94
2023-03-27T12:56:52.027Z,44.38
2023-03-27T12:59:20.995Z,45.02
2023-03-27T13:02:01.895Z,42.31
2023-03-27T13:04:43.089Z,44.00
2023-03-27T13:07:13.777Z,44.68
2023-03-27T13:09:54.063Z,43.93
2023-03-27T13:12:32.037Z,45.22
2023-03-27T13:15:06.590Z,45.63
2023-03-27T13:17:41.609Z,44.73
2023-03-27T13:20:17.077Z,44.27
2023-03-27T13:22:53.149Z,42.33
2023-03-27T13:25:26.196Z,44.05
2023-03-27T13:28:11.376Z,46.71
2023-03-27T13:30:46.530Z,48.81
2023-03-27T13:33:16.905Z,50.32
2023-03-27T13:35:53.628Z,49.66
2023-03-27T13:38:36.170Z,49.64
2023-03-27T13:41:18.350Z,48.33
2023-03-27T13:43:47.258Z,49.05
2023-03-27T13:46:18.994Z,46.68
2023-03-27T13:48:58.348Z,46.61
2023-03-27T13:51:44.463Z,46.00
2023-03-27T13:54:30.573Z,46.10
2023-03-27T13:57:01.545Z,49.36
2023-03-27T13:59:39.778Z,50.19
2023-03-27T14:02:27.020Z,54.27
2023-03-27T14:05:04.455Z,58.27
2023-03-27T14:07:55.192Z,65.08
2023-03-27T14:10:35.478Z,65.83
2023-03-27T14:13:15.631Z,67.13
2023-03-27T14:15:48.126Z,65.75
2023-03-27T14:18:30.994Z,64.89
2023-03-27T14:21:00.510Z,66.14
2023-03-27T14:23:30.641Z,65.49
2023-03-27T14:26:01.796Z,65.51
2023-03-27T14:28:31.576Z,66.26
2023-03-27T14:31:01.094Z,65.39
2023-03-27T14:33:28.767Z,63.77
2023-03-27T14:35:57.570Z,63.97
2023-03-27T14:38:25.919Z,66.38
2023-03-27T14:40:57.709Z,69.59
2023-03-27T14:43:27.511Z,72.75
2023-03-27T14:45:56.307Z,73.55
2023-03-27T14:48:26.108Z,71.45
2023-03-27T14:50:55.066Z,72.64
2023-03-27T14:53:26.459Z,72.75
2023-03-27T14:55:55.226Z,72.84
2023-03-27T14:58:25.554Z,73.20
2023-03-27T15:00:54.248Z,71.69
2023-03-27T15:03:24.486Z,72.43
2023-03-27T15:05:57.382Z,72.56
2023-03-27T15:08:26.622Z,72.13
2023-03-27T15:10:54.502Z,70.31
2023-03-27T15:13:26.468Z,70.71
2023-03-27T15:15:56.718Z,69.72
2023-03-27T15:18:28.198Z,69.44
2023-03-27T15:20:57.636Z,70.52
2023-03-27T15:23:28.385Z,71.05
2023-03-27T15:25:58.336Z,69.60
2023-03-27T15:28:29.968Z,70.59
2023-03-27T15:30:59.042Z,69.50
2023-03-27T15:33:33.959Z,68.61
2023-03-27T15:36:03.827Z,67.28
2023-03-27T15:38:33.073Z,68.08
2023-03-27T15:41:02.090Z,67.04
2023-03-27T15:43:31.362Z,66.23
2023-03-27T15:46:03.003Z,67.60
2023-03-27T15:48:32.217Z,67.12
2023-03-27T15:51:00.431Z,66.90
2023-03-27T15:53:31.597Z,67.64
2023-03-27T15:55:59.941Z,67.75
2023-03-27T15:58:29.632Z,68.51
2023-03-27T16:01:00.930Z,68.27
2023-03-27T16:03:31.162Z,68.35
2023-03-27T16:05:59.366Z,67.92
2023-03-27T16:08:29.662Z,67.55
2023-03-27T16:10:58.386Z,66.09
2023-03-27T16:13:27.215Z,64.40
2023-03-27T16:15:58.932Z,64.99
2023-03-27T16:18:30.903Z,64.57
2023-03-27T16:21:06.716Z,64.91
2023-03-27T16:23:34.128Z,65.23
2023-03-27T16:26:02.138Z,65.32
2023-03-27T16:28:30.495Z,65.46
2023-03-27T16:30:58.612Z,65.82
2023-03-27T16:33:27.788Z,66.91
2023-03-27T16:35:57.116Z,67.30
2023-03-27T16:38:24.699Z,67.90
2023-03-27T16:40:52.236Z,68.29
2023-03-27T16:43:19.825Z,68.27
2023-03-27T16:45:47.222Z,67.66
2023-03-27T16:48:14.587Z,68.18
2023-03-27T16:50:41.986Z,68.69
2023-03-27T16:53:11.118Z,67.53
2023-03-27T16:55:38.364Z,67.76
2023-03-27T16:58:05.684Z,67.41
2023-03-27T17:00:33.118Z,67.67
2023-03-27T17:03:00.764Z,67.67
2023-03-27T17:05:35.532Z,68.58
2023-03-27T17:08:05.356Z,68.58
2023-03-27T17:10:35.461Z,68.82
2023-03-27T17:13:03.042Z,69.41
2023-03-27T17:15:30.287Z,69.49
2023-03-27T17:17:57.612Z,69.04
2023-03-27T17:20:24.933Z,68.56
2023-03-27T17:22:55.702Z,64.71
2023-03-27T17:25:23.390Z,63.73
2023-03-27T17:27:51.990Z,69.56
2023-03-27T17:30:30.537Z,72.85
2023-03-27T17:33:04.961Z,74.50
2023-03-27T17:35:32.388Z,77.37
2023-03-27T17:37:59.699Z,81.10
2023-03-27T17:40:26.944Z,81.54
2023-03-27T17:42:55.520Z,82.42
2023-03-27T17:45:23.741Z,82.78
2023-03-27T17:47:51.159Z,82.75
2023-03-27T17:50:18.570Z,83.23
2023-03-27T17:52:45.968Z,83.45
2023-03-27T17:55:13.229Z,83.64
2023-03-27T17:57:41.574Z,85.29
2023-03-27T18:00:11.602Z,86.71
2023-03-27T18:02:39.275Z,89.10
2023-03-27T18:05:07.315Z,90.96
2023-03-27T18:07:34.872Z,92.02
2023-03-27T18:10:02.150Z,92.12
2023-03-27T18:12:29.757Z,91.58
2023-03-27T18:14:56.999Z,93.81
2023-03-27T18:17:26.000Z,94.14
2023-03-27T18:19:53.276Z,94.96
2023-03-27T18:22:20.849Z,95.31
2023-03-27T18:24:48.466Z,96.03
2023-03-27T18:27:16.932Z,96.04
2023-03-27T18:29:44.210Z,97.22
2023-03-27T18:32:11.920Z,96.55
2023-03-27T18:34:41.255Z,95.54
2023-03-27T18:37:08.538Z,94.51
2023-03-27T18:39:37.453Z,95.85
2023-03-27T18:42:04.919Z,96.24
2023-03-27T18:44:32.490Z,96.54
2023-03-27T18:47:03.486Z,96.34
2023-03-27T18:49:30.755Z,95.27
2023-03-27T18:51:59.366Z,95.27
2023-03-27T18:54:26.627Z,95.57
2023-03-27T18:56:54.050Z,95.08
2023-03-27T18:59:22.668Z,94.34
2023-03-27T19:01:49.976Z,93.94
2023-03-27T19:04:18.872Z,93.68
2023-03-27T19:06:47.119Z,93.98
2023-03-27T19:09:16.189Z,93.55
2023-03-27T19:11:44.056Z,92.71
2023-03-27T19:14:12.020Z,93.18
2023-03-27T19:16:39.329Z,92.67
2023-03-27T19:19:06.640Z,92.38
2023-03-27T19:21:33.917Z,91.80
2023-03-27T19:24:01.286Z,91.76
2023-03-27T19:26:29.882Z,92.14
2023-03-27T19:28:57.567Z,92.76
2023-03-27T19:31:25.064Z,92.85
2023-03-27T19:33:52.465Z,92.33
2023-03-27T19:36:20.601Z,91.58
2023-03-27T19:38:47.904Z,91.06
2023-03-27T19:41:15.365Z,91.32
2023-03-27T19:43:44.316Z,91.40
2023-03-27T19:48:42.081Z,91.25
2023-03-27T19:51:09.426Z,90.57
2023-03-27T19:53:37.730Z,90.60
2023-03-27T19:56:07.447Z,92.03
2023-03-27T19:58:34.738Z,92.13
2023-03-27T20:01:04.563Z,91.97
2023-03-27T20:03:33.545Z,91.31
2023-03-27T20:06:06.524Z,90.53
2023-03-27T20:08:37.865Z,89.95
2023-03-27T20:11:06.693Z,89.82
2023-03-27T20:13:42.394Z,89.62
2023-03-27T20:16:19.480Z,89.87
2023-03-27T20:18:55.106Z,89.99
2023-03-27T20:21:24.629Z,90.42
2023-03-27T20:23:54.405Z,91.00
2023-03-27T20:26:22.374Z,90.67
2023-03-27T20:28:49.953Z,89.63
2023-03-27T20:31:19.228Z,88.52
2023-03-27T20:33:46.668Z,88.43
2023-03-27T20:36:14.908Z,86.89
2023-03-27T20:38:42.238Z,86.38
2023-03-27T20:41:10.724Z,86.40
2023-03-27T20:43:38.992Z,84.75
2023-03-27T20:46:06.852Z,85.43
2023-03-27T20:48:41.641Z,86.09
2023-03-27T20:51:14.481Z,84.75
2023-03-27T20:53:42.463Z,85.12
2023-03-27T20:56:12.219Z,84.71
2023-03-27T20:58:40.427Z,84.67
2023-03-27T21:01:09.042Z,84.32
2023-03-27T21:03:38.647Z,83.66
2023-03-27T21:06:06.548Z,83.34
2023-03-27T21:08:34.433Z,83.28
2023-03-27T21:11:01.841Z,83.03
2023-03-27T21:13:29.301Z,82.88
2023-03-27T21:15:56.905Z,81.91
2023-03-27T21:18:24.363Z,80.92
2023-03-27T21:20:53.437Z,81.67
2023-03-27T21:23:21.821Z,80.67
2023-03-27T21:25:50.528Z,80.23
2023-03-27T21:28:17.803Z,80.33
2023-03-27T21:30:46.322Z,81.03
2023-03-27T21:33:15.864Z,79.86
2023-03-27T21:35:45.466Z,79.96
2023-03-27T21:38:15.412Z,80.56
2023-03-27T21:40:42.861Z,80.38
2023-03-27T21:43:10.390Z,81.12
2023-03-27T21:45:37.791Z,80.58
2023-03-27T21:48:05.475Z,81.65
2023-03-27T21:50:32.792Z,81.64
2023-03-27T21:53:00.209Z,82.72
2023-03-27T21:55:28.787Z,82.71
2023-03-27T21:57:56.044Z,83.23
2023-03-27T22:00:23.326Z,81.68
2023-03-27T22:02:50.737Z,81.99
2023-03-27T22:05:18.073Z,82.51
2023-03-27T22:07:45.733Z,81.14
2023-03-27T22:10:13.262Z,80.53
2023-03-27T22:12:42.215Z,80.11
2023-03-27T22:15:10.040Z,80.35
2023-03-27T22:17:37.772Z,79.72
2023-03-27T22:20:05.645Z,79.50
2023-03-27T22:22:34.572Z,79.62
2023-03-27T22:25:01.976Z,79.67
2023-03-27T22:27:29.256Z,80.56
2023-03-27T22:29:57.835Z,80.13
2023-03-27T22:32:25.494Z,80.27
2023-03-27T22:34:52.844Z,80.24
2023-03-27T22:37:20.694Z,80.03
2023-03-27T22:39:48.390Z,80.36
2023-03-27T22:42:15.933Z,79.92
2023-03-27T22:44:43.191Z,80.39
2023-03-27T22:47:11.810Z,80.29
2023-03-27T22:49:39.119Z,80.10
2023-03-27T22:52:06.906Z,79.67
2023-03-27T22:54:34.180Z,79.51
2023-03-27T22:57:01.952Z,79.95
2023-03-27T22:59:29.360Z,80.28
2023-03-27T23:01:56.757Z,79.37
2023-03-27T23:04:25.863Z,79.31
2023-03-27T23:06:53.100Z,78.74
2023-03-27T23:09:20.390Z,78.57
2023-03-27T23:11:48.028Z,78.90
2023-03-27T23:14:15.315Z,77.98
2023-03-27T23:16:42.561Z,78.14
2023-03-27T23:19:09.968Z,77.89
2023-03-27T23:21:40.622Z,77.86
2023-03-27T23:24:08.139Z,77.25
2023-03-27T23:26:35.534Z,77.23
2023-03-27T23:29:02.808Z,77.48
2023-03-27T23:31:30.286Z,77.96
2023-03-27T23:33:57.606Z,78.26
2023-03-27T23:36:25.606Z,77.35
2023-03-27T23:38:54.726Z,77.23
2023-03-27T23:41:22.386Z,78.08
2023-03-27T23:43:49.779Z,77.36
2023-03-27T23:46:17.579Z,77.71
2023-03-27T23:48:45.448Z,77.76
2023-03-27T23:51:14.401Z,78.16
2023-03-27T23:53:42.083Z,77.33
2023-03-27T23:56:11.048Z,77.92
2023-03-27T23:58:38.519Z,77.53
